createdAt,value
2023-04-14T00:00:57.536Z,6.14
2023-04-14T00:01:57.616Z,6.13
2023-04-14T00:02:57.634Z,6.14
2023-04-14T00:03:57.973Z,6.13
2023-04-14T00:04:57.492Z,6.13
2023-04-14T00:05:57.494Z,6.13
2023-04-14T00:06:57.417Z,6.13
2023-04-14T00:07:57.392Z,6.13
2023-04-14T00:08:57.402Z,6.11
2023-04-14T00:09:57.389Z,6.09
2023-04-14T00:10:57.397Z,6.09
2023-04-14T00:11:57.459Z,6.07
2023-04-14T00:12:57.346Z,6.06
2023-04-14T00:13:57.348Z,6.04
2023-04-14T00:14:57.349Z,6.03
2023-04-14T00:15:57.357Z,6.01
2023-04-14T00:16:57.339Z,6.01
2023-04-14T00:17:57.364Z,5.93
2023-04-14T00:18:57.347Z,5.91
2023-04-14T00:19:57.318Z,5.86
2023-04-14T00:20:57.320Z,5.83
2023-04-14T00:21:57.272Z,5.82
2023-04-14T00:22:57.237Z,5.81
2023-04-14T00:23:57.248Z,5.78
2023-04-14T00:24:57.259Z,5.75
2023-04-14T00:25:57.200Z,5.73
2023-04-14T00:26:57.216Z,5.68
2023-04-14T00:27:57.200Z,5.67
2023-04-14T00:28:57.182Z,5.64
2023-04-14T00:29:57.159Z,5.60
2023-04-14T00:30:57.230Z,5.59
2023-04-14T00:31:57.155Z,5.56
2023-04-14T00:32:57.171Z,5.55
2023-04-14T00:33:57.181Z,5.55
2023-04-14T00:34:57.095Z,5.53
2023-04-14T00:35:57.122Z,5.55
2023-04-14T00:36:57.081Z,5.52
2023-04-14T00:37:57.060Z,5.50
2023-04-14T00:38:57.095Z,5.49
2023-04-14T00:39:57.040Z,5.46
2023-04-14T00:40:57.032Z,5.43
2023-04-14T00:41:57.032Z,5.38
2023-04-14T00:42:57.008Z,5.37
2023-04-14T00:43:57.018Z,5.35
2023-04-14T00:44:56.983Z,5.35
2023-04-14T00:45:56.994Z,5.35
2023-04-14T00:46:57.002Z,5.38
2023-04-14T00:47:57.087Z,5.40
2023-04-14T00:48:56.963Z,5.41
2023-04-14T00:49:56.960Z,5.43
2023-04-14T00:50:56.925Z,5.45
2023-04-14T00:51:56.936Z,5.48
2023-04-14T00:52:56.900Z,5.48
2023-04-14T00:53:56.906Z,5.49
2023-04-14T00:54:56.903Z,5.52
2023-04-14T00:55:56.872Z,5.52
2023-04-14T00:56:56.864Z,5.55
2023-04-14T00:57:56.846Z,5.55
2023-04-14T00:58:56.878Z,5.56
2023-04-14T00:59:56.817Z,5.56
2023-04-14T01:00:56.811Z,5.56
2023-04-14T01:01:56.953Z,5.57
2023-04-14T01:02:56.947Z,5.56
2023-04-14T01:03:56.892Z,5.57
2023-04-14T01:04:56.994Z,5.57
2023-04-14T01:05:56.756Z,5.57
2023-04-14T01:06:56.760Z,5.57
2023-04-14T01:07:56.739Z,5.57
2023-04-14T01:08:56.750Z,5.56
2023-04-14T01:09:56.726Z,5.56
2023-04-14T01:10:56.726Z,5.55
2023-04-14T01:11:56.716Z,5.55
2023-04-14T01:12:56.681Z,5.52
2023-04-14T01:13:56.691Z,5.52
2023-04-14T01:14:56.692Z,5.50
2023-04-14T01:15:56.697Z,5.52
2023-04-14T01:16:56.637Z,5.52
2023-04-14T01:17:56.660Z,5.50
2023-04-14T01:18:56.646Z,5.50
2023-04-14T01:19:56.607Z,5.50
2023-04-14T01:20:56.628Z,5.49
2023-04-14T01:21:56.596Z,5.49
2023-04-14T01:22:56.583Z,5.48
2023-04-14T01:23:56.577Z,5.48
2023-04-14T01:24:56.555Z,5.48
2023-04-14T01:25:56.554Z,5.48
2023-04-14T01:26:56.546Z,5.46
2023-04-14T01:27:56.511Z,5.46
2023-04-14T01:28:56.551Z,5.43
2023-04-14T01:29:56.496Z,5.45
2023-04-14T01:30:56.517Z,5.45
2023-04-14T01:31:56.507Z,5.45
2023-04-14T01:32:56.537Z,5.43
2023-04-14T01:33:56.481Z,5.40
2023-04-14T01:34:56.441Z,5.41
2023-04-14T01:35:56.449Z,5.40
2023-04-14T01:36:56.446Z,5.40
2023-04-14T01:37:56.425Z,5.40
2023-04-14T01:38:56.471Z,5.41
2023-04-14T01:39:56.398Z,5.40
2023-04-14T01:40:56.416Z,5.38
2023-04-14T01:41:56.388Z,5.38
2023-04-14T01:42:56.375Z,5.38
2023-04-14T01:43:56.368Z,5.38
2023-04-14T01:44:56.334Z,5.40
2023-04-14T01:45:56.455Z,5.37
2023-04-14T01:46:56.308Z,5.37
2023-04-14T01:47:56.383Z,5.35
2023-04-14T01:48:56.381Z,5.35
2023-04-14T01:49:56.305Z,5.35
2023-04-14T01:50:56.298Z,5.35
2023-04-14T01:51:56.263Z,5.37
2023-04-14T01:52:56.271Z,5.35
2023-04-14T01:53:56.300Z,5.35
2023-04-14T01:54:56.236Z,5.34
2023-04-14T01:55:56.251Z,5.34
2023-04-14T01:56:56.232Z,5.34
2023-04-14T01:57:56.236Z,5.34
2023-04-14T01:58:56.259Z,5.34
2023-04-14T01:59:56.181Z,5.34
2023-04-14T02:00:56.239Z,5.32
2023-04-14T02:01:56.191Z,5.34
2023-04-14T02:02:56.339Z,5.32
2023-04-14T02:03:56.279Z,5.32
2023-04-14T02:04:56.118Z,5.34
2023-04-14T02:05:56.153Z,5.37
2023-04-14T02:06:56.159Z,5.34
2023-04-14T02:07:56.103Z,5.34
2023-04-14T02:08:56.094Z,5.32
2023-04-14T02:09:57.260Z,5.30
2023-04-14T02:10:56.064Z,5.25
2023-04-14T02:11:56.113Z,5.23
2023-04-14T02:12:56.054Z,5.17
2023-04-14T02:13:56.054Z,5.16
2023-04-14T02:14:56.024Z,5.13
2023-04-14T02:15:56.066Z,5.12
2023-04-14T02:16:56.022Z,5.09
2023-04-14T02:17:56.009Z,5.05
2023-04-14T02:18:55.986Z,5.04
2023-04-14T02:19:56.026Z,5.01
2023-04-14T02:20:56.013Z,4.99
2023-04-14T02:21:55.970Z,4.98
2023-04-14T02:22:55.952Z,4.98
2023-04-14T02:23:55.927Z,4.99
2023-04-14T02:24:55.952Z,4.96
2023-04-14T02:25:55.890Z,4.95
2023-04-14T02:26:55.871Z,4.92
2023-04-14T02:27:55.899Z,4.92
2023-04-14T02:28:55.863Z,4.89
2023-04-14T02:29:55.879Z,4.89
2023-04-14T02:30:55.910Z,4.89
2023-04-14T02:31:55.824Z,4.88
2023-04-14T02:32:55.846Z,4.86
2023-04-14T02:33:55.835Z,4.86
2023-04-14T02:34:55.828Z,4.84
2023-04-14T02:35:55.772Z,4.88
2023-04-14T02:36:55.780Z,4.88
2023-04-14T02:37:55.760Z,4.88
2023-04-14T02:38:55.738Z,4.89
2023-04-14T02:39:55.754Z,4.89
2023-04-14T02:40:55.725Z,4.88
2023-04-14T02:41:55.710Z,4.86
2023-04-14T02:42:55.693Z,4.84
2023-04-14T02:43:55.689Z,4.80
2023-04-14T02:44:55.711Z,4.80
2023-04-14T02:45:55.694Z,4.79
2023-04-14T02:46:55.656Z,4.79
2023-04-14T02:47:55.667Z,4.76
2023-04-14T02:48:55.655Z,4.76
2023-04-14T02:49:55.638Z,4.73
2023-04-14T02:50:55.606Z,4.73
2023-04-14T02:51:55.606Z,4.72
2023-04-14T02:52:55.614Z,4.72
2023-04-14T02:53:55.601Z,4.69
2023-04-14T02:54:55.625Z,4.67
2023-04-14T02:55:55.688Z,4.65
2023-04-14T02:56:55.590Z,4.64
2023-04-14T02:57:55.547Z,4.64
2023-04-14T02:58:55.539Z,4.62
2023-04-14T02:59:55.563Z,4.59
2023-04-14T03:00:55.521Z,4.58
2023-04-14T03:01:55.621Z,4.54
2023-04-14T03:02:55.560Z,4.52
2023-04-14T03:03:55.495Z,4.51
2023-04-14T03:04:55.519Z,4.47
2023-04-14T03:05:55.471Z,4.44
2023-04-14T03:06:55.448Z,4.46
2023-04-14T03:07:55.479Z,4.44
2023-04-14T03:08:55.437Z,4.44
2023-04-14T03:09:55.451Z,4.44
2023-04-14T03:10:55.436Z,4.44
2023-04-14T03:11:55.435Z,4.42
2023-04-14T03:12:55.429Z,4.43
2023-04-14T03:13:55.387Z,4.44
2023-04-14T03:14:55.393Z,4.44
2023-04-14T03:15:55.421Z,4.43
2023-04-14T03:16:55.349Z,4.44
2023-04-14T03:17:55.445Z,4.40
2023-04-14T03:18:55.318Z,4.39
2023-04-14T03:19:55.379Z,4.37
2023-04-14T03:20:55.330Z,4.39
2023-04-14T03:21:55.300Z,4.39
2023-04-14T03:22:55.331Z,4.40
2023-04-14T03:23:56.331Z,4.42
2023-04-14T03:24:55.289Z,4.42
2023-04-14T03:25:55.258Z,4.42
2023-04-14T03:26:55.248Z,4.40
2023-04-14T03:27:55.246Z,4.40
2023-04-14T03:28:55.227Z,4.39
2023-04-14T03:29:55.242Z,4.39
2023-04-14T03:30:55.278Z,4.37
2023-04-14T03:31:55.188Z,4.36
2023-04-14T03:32:55.209Z,4.37
2023-04-14T03:33:55.179Z,4.36
2023-04-14T03:34:55.159Z,4.36
2023-04-14T03:35:55.136Z,4.36
2023-04-14T03:36:55.141Z,4.36
2023-04-14T03:37:55.123Z,4.33
2023-04-14T03:38:55.124Z,4.32
2023-04-14T03:39:55.114Z,4.29
2023-04-14T03:40:55.068Z,4.29
2023-04-14T03:41:55.059Z,4.29
2023-04-14T03:42:55.058Z,4.29
2023-04-14T03:43:55.034Z,4.26
2023-04-14T03:44:55.046Z,4.26
2023-04-14T03:45:55.008Z,4.25
2023-04-14T03:46:55.111Z,4.28
2023-04-14T03:47:55.042Z,4.26
2023-04-14T03:48:55.003Z,4.26
2023-04-14T03:49:54.998Z,4.26
2023-04-14T03:50:54.961Z,4.26
2023-04-14T03:51:54.946Z,4.25
2023-04-14T03:52:54.955Z,4.26
2023-04-14T03:53:55.868Z,4.25
2023-04-14T03:54:54.924Z,4.25
2023-04-14T03:55:54.901Z,4.25
2023-04-14T03:56:54.898Z,4.22
2023-04-14T03:57:54.887Z,4.22
2023-04-14T03:58:54.898Z,4.22
2023-04-14T03:59:54.884Z,4.21
2023-04-14T04:00:54.856Z,4.22
2023-04-14T04:01:54.910Z,4.19
2023-04-14T04:02:54.965Z,4.19
2023-04-14T04:03:55.139Z,4.19
2023-04-14T04:04:54.876Z,4.18
2023-04-14T04:05:54.794Z,4.18
2023-04-14T04:06:54.818Z,4.16
2023-04-14T04:07:54.772Z,4.16
2023-04-14T04:08:54.762Z,4.18
2023-04-14T04:09:54.768Z,4.15
2023-04-14T04:10:54.737Z,4.15
2023-04-14T04:11:54.751Z,4.12
2023-04-14T04:12:54.713Z,4.08
2023-04-14T04:13:54.717Z,4.06
2023-04-14T04:14:54.712Z,4.07
2023-04-14T04:15:54.697Z,4.07
2023-04-14T04:16:54.818Z,4.07
2023-04-14T04:17:54.779Z,4.07
2023-04-14T04:18:54.655Z,4.06
2023-04-14T04:19:54.674Z,4.08
2023-04-14T04:20:54.635Z,4.08
2023-04-14T04:21:54.626Z,4.08
2023-04-14T04:22:54.610Z,4.10
2023-04-14T04:23:54.629Z,4.10
2023-04-14T04:24:54.630Z,4.08
2023-04-14T04:25:54.574Z,4.08
2023-04-14T04:26:54.582Z,4.10
2023-04-14T04:27:54.557Z,4.10
2023-04-14T04:28:54.563Z,4.08
2023-04-14T04:29:54.564Z,4.08
2023-04-14T04:30:54.523Z,4.10
2023-04-14T04:31:55.349Z,4.08
2023-04-14T04:32:54.532Z,4.10
2023-04-14T04:33:54.513Z,4.08
2023-04-14T04:34:54.497Z,4.10
2023-04-14T04:35:54.463Z,4.10
2023-04-14T04:36:54.490Z,4.12
2023-04-14T04:37:54.489Z,4.08
2023-04-14T04:38:54.446Z,4.08
2023-04-14T04:39:54.437Z,4.10
2023-04-14T04:40:54.414Z,4.07
2023-04-14T04:41:54.407Z,4.07
2023-04-14T04:42:54.402Z,4.07
2023-04-14T04:43:54.399Z,4.07
2023-04-14T04:44:54.400Z,4.08
2023-04-14T04:45:54.411Z,4.10
2023-04-14T04:46:54.359Z,4.10
2023-04-14T04:47:54.438Z,4.12
2023-04-14T04:48:54.333Z,4.10
2023-04-14T04:49:54.339Z,4.12
2023-04-14T04:50:54.342Z,4.14
2023-04-14T04:51:54.308Z,4.14
2023-04-14T04:52:54.312Z,4.14
2023-04-14T04:53:54.293Z,4.14
2023-04-14T04:54:54.297Z,4.14
2023-04-14T04:55:54.263Z,4.15
2023-04-14T04:56:54.256Z,4.12
2023-04-14T04:57:54.228Z,4.14
2023-04-14T04:58:54.245Z,4.10
2023-04-14T04:59:54.281Z,4.12
2023-04-14T05:00:54.200Z,4.12
2023-04-14T05:01:54.276Z,4.12
2023-04-14T05:02:54.299Z,4.10
2023-04-14T05:03:54.202Z,4.12
2023-04-14T05:04:54.241Z,4.10
2023-04-14T05:05:54.185Z,4.10
2023-04-14T05:06:54.141Z,4.10
2023-04-14T05:07:54.144Z,4.14
2023-04-14T05:08:54.107Z,4.14
2023-04-14T05:09:54.120Z,4.14
2023-04-14T05:10:54.109Z,4.15
2023-04-14T05:11:54.098Z,4.15
2023-04-14T05:12:54.080Z,4.15
2023-04-14T05:13:54.065Z,4.15
2023-04-14T05:14:54.086Z,4.15
2023-04-14T05:15:54.065Z,4.15
2023-04-14T05:16:54.035Z,4.16
2023-04-14T05:18:00.626Z,4.15
2023-04-14T05:18:53.995Z,4.18
2023-04-14T05:19:54.033Z,4.21
2023-04-14T05:20:53.977Z,4.21
2023-04-14T05:21:53.958Z,4.24
2023-04-14T05:22:53.952Z,4.24
2023-04-14T05:23:53.975Z,4.25
2023-04-14T05:24:53.952Z,4.25
2023-04-14T05:25:53.954Z,4.25
2023-04-14T05:27:12.549Z,4.28
2023-04-14T05:27:53.915Z,4.28
2023-04-14T05:28:53.903Z,4.28
2023-04-14T05:29:53.923Z,4.29
2023-04-14T05:30:53.882Z,4.29
2023-04-14T05:31:53.858Z,4.33
2023-04-14T05:32:53.885Z,4.33
2023-04-14T05:33:53.839Z,4.34
2023-04-14T05:34:53.849Z,4.34
2023-04-14T05:35:53.833Z,4.36
2023-04-14T05:36:53.808Z,4.36
2023-04-14T05:37:53.790Z,4.36
2023-04-14T05:38:53.792Z,4.37
2023-04-14T05:39:53.799Z,4.40
2023-04-14T05:40:53.783Z,4.42
2023-04-14T05:41:53.765Z,4.42
2023-04-14T05:42:55.385Z,4.44
2023-04-14T05:43:53.727Z,4.46
2023-04-14T05:44:53.717Z,4.47
2023-04-14T05:45:53.721Z,4.47
2023-04-14T05:46:53.722Z,4.50
2023-04-14T05:47:53.744Z,4.51
2023-04-14T05:48:53.676Z,4.51
2023-04-14T05:49:53.689Z,4.54
2023-04-14T05:50:53.677Z,4.54
2023-04-14T05:51:53.641Z,4.55
2023-04-14T05:52:53.628Z,4.57
2023-04-14T05:53:53.635Z,4.57
2023-04-14T05:54:53.658Z,4.55
2023-04-14T05:55:53.618Z,4.58
2023-04-14T05:56:53.583Z,4.59
2023-04-14T05:57:53.583Z,4.59
2023-04-14T05:58:53.561Z,4.61
2023-04-14T05:59:53.560Z,4.62
2023-04-14T06:00:53.573Z,4.64
2023-04-14T06:01:53.608Z,4.65
2023-04-14T06:02:53.740Z,4.69
2023-04-14T06:03:53.815Z,4.70
2023-04-14T06:04:53.580Z,4.72
2023-04-14T06:05:53.530Z,4.73
2023-04-14T06:06:53.475Z,4.73
2023-04-14T06:07:53.470Z,4.76
2023-04-14T06:08:53.456Z,4.77
2023-04-14T06:09:53.452Z,4.77
2023-04-14T06:10:53.460Z,4.80
2023-04-14T06:11:53.444Z,4.83
2023-04-14T06:12:53.416Z,4.83
2023-04-14T06:13:53.429Z,4.84
2023-04-14T06:14:53.399Z,4.88
2023-04-14T06:15:53.423Z,4.88
2023-04-14T06:16:53.460Z,4.91
2023-04-14T06:17:53.394Z,4.92
2023-04-14T06:18:53.361Z,4.94
2023-04-14T06:19:53.340Z,4.94
2023-04-14T06:20:53.355Z,4.98
2023-04-14T06:21:53.309Z,4.99
2023-04-14T06:22:53.307Z,5.01
2023-04-14T06:23:53.292Z,5.02
2023-04-14T06:24:53.288Z,5.05
2023-04-14T06:25:53.289Z,5.07
2023-04-14T06:26:53.271Z,5.09
2023-04-14T06:27:53.261Z,5.12
2023-04-14T06:28:53.250Z,5.13
2023-04-14T06:29:53.245Z,5.16
2023-04-14T06:30:53.238Z,5.19
2023-04-14T06:31:53.243Z,5.20
2023-04-14T06:32:53.264Z,5.25
2023-04-14T06:33:53.201Z,5.27
2023-04-14T06:34:53.549Z,5.31
2023-04-14T06:35:53.180Z,5.34
2023-04-14T06:36:53.150Z,5.35
2023-04-14T06:37:53.146Z,5.38
2023-04-14T06:38:53.132Z,5.41
2023-04-14T06:39:53.126Z,5.46
2023-04-14T06:40:53.402Z,5.49
2023-04-14T06:41:53.094Z,5.50
2023-04-14T06:42:53.100Z,5.55
2023-04-14T06:43:53.291Z,5.57
2023-04-14T06:44:53.078Z,5.63
2023-04-14T06:45:53.130Z,5.67
2023-04-14T06:46:53.048Z,5.74
2023-04-14T06:47:53.088Z,5.78
2023-04-14T06:48:53.028Z,5.85
2023-04-14T06:49:53.007Z,5.91
2023-04-14T06:50:53.037Z,5.98
2023-04-14T06:51:52.993Z,6.04
2023-04-14T06:52:52.977Z,6.10
2023-04-14T06:53:52.972Z,6.14
2023-04-14T06:54:52.955Z,6.21
2023-04-14T06:55:52.971Z,6.28
2023-04-14T06:56:52.929Z,6.32
2023-04-14T06:57:52.935Z,6.36
2023-04-14T06:58:52.978Z,6.41
2023-04-14T06:59:52.907Z,6.44
2023-04-14T07:00:52.971Z,6.48
2023-04-14T07:01:53.060Z,6.53
2023-04-14T07:02:52.988Z,6.56
2023-04-14T07:03:52.868Z,6.59
2023-04-14T07:04:52.934Z,6.62
2023-04-14T07:05:52.863Z,6.65
2023-04-14T07:06:52.819Z,6.66
2023-04-14T07:07:52.836Z,6.71
2023-04-14T07:08:52.805Z,6.73
2023-04-14T07:09:52.874Z,6.76
2023-04-14T07:10:53.881Z,6.80
2023-04-14T07:11:52.775Z,6.84
2023-04-14T07:12:52.760Z,6.87
2023-04-14T07:13:52.760Z,6.90
2023-04-14T07:14:52.743Z,6.95
2023-04-14T07:15:52.826Z,6.99
2023-04-14T07:16:52.724Z,7.04
2023-04-14T07:17:52.744Z,7.07
2023-04-14T07:18:52.707Z,7.12
2023-04-14T07:19:52.683Z,7.15
2023-04-14T07:20:52.707Z,7.20
2023-04-14T07:21:52.653Z,7.26
2023-04-14T07:22:52.648Z,7.34
2023-04-14T07:23:52.634Z,7.38
2023-04-14T07:24:52.616Z,7.41
2023-04-14T07:25:52.730Z,7.44
2023-04-14T07:26:52.616Z,7.49
2023-04-14T07:28:02.535Z,7.53
2023-04-14T07:28:52.677Z,7.56
2023-04-14T07:29:52.571Z,7.59
2023-04-14T07:30:52.614Z,7.62
2023-04-14T07:31:52.669Z,7.67
2023-04-14T07:32:52.630Z,7.71
2023-04-14T07:33:52.532Z,7.75
2023-04-14T07:34:52.528Z,7.79
2023-04-14T07:36:02.200Z,7.84
2023-04-14T07:36:52.502Z,7.90
2023-04-14T07:37:52.482Z,7.96
2023-04-14T07:38:52.506Z,8.00
2023-04-14T07:39:52.461Z,8.07
2023-04-14T07:40:52.469Z,8.12
2023-04-14T07:41:52.438Z,8.17
2023-04-14T07:42:52.428Z,8.21
2023-04-14T07:43:52.424Z,8.25
2023-04-14T07:44:52.408Z,8.30
2023-04-14T07:45:52.479Z,8.35
2023-04-14T07:46:52.438Z,8.39
2023-04-14T07:47:52.463Z,8.42
2023-04-14T07:48:52.374Z,8.45
2023-04-14T07:49:52.362Z,8.50
2023-04-14T07:50:52.381Z,8.57
2023-04-14T07:51:52.333Z,8.62
2023-04-14T07:52:52.318Z,8.66
2023-04-14T07:53:52.340Z,8.68
2023-04-14T07:54:52.341Z,8.72
2023-04-14T07:55:52.325Z,8.75
2023-04-14T07:56:52.269Z,8.78
2023-04-14T07:57:52.365Z,8.79
2023-04-14T07:58:52.255Z,8.84
2023-04-14T07:59:52.241Z,8.90
2023-04-14T08:00:52.246Z,8.96
2023-04-14T08:01:52.321Z,9.05
2023-04-14T08:02:52.431Z,9.13
2023-04-14T08:03:52.507Z,9.18
2023-04-14T08:04:52.213Z,9.24
2023-04-14T08:05:52.381Z,9.28
2023-04-14T08:06:52.174Z,9.32
2023-04-14T08:07:52.151Z,9.40
2023-04-14T08:08:52.147Z,9.46
2023-04-14T08:09:52.141Z,9.49
2023-04-14T08:10:52.148Z,9.56
2023-04-14T08:11:52.122Z,9.60
2023-04-14T08:12:52.105Z,9.64
2023-04-14T08:13:52.092Z,9.68
2023-04-14T08:14:52.077Z,9.71
2023-04-14T08:15:52.139Z,9.75
2023-04-14T08:16:52.057Z,9.78
2023-04-14T08:17:52.098Z,9.83
2023-04-14T08:18:52.054Z,9.86
2023-04-14T08:19:52.051Z,9.93
2023-04-14T08:20:52.052Z,9.96
2023-04-14T08:21:52.011Z,9.99
2023-04-14T08:22:51.978Z,10.06
2023-04-14T08:23:52.007Z,10.14
2023-04-14T08:24:51.997Z,10.18
2023-04-14T08:25:51.989Z,10.25
2023-04-14T08:26:51.935Z,10.32
2023-04-14T08:27:52.084Z,10.40
2023-04-14T08:28:51.921Z,10.44
2023-04-14T08:29:51.911Z,10.47
2023-04-14T08:30:51.914Z,10.52
2023-04-14T08:31:51.930Z,10.58
2023-04-14T08:32:51.946Z,10.60
2023-04-14T08:33:51.864Z,10.66
2023-04-14T08:35:36.838Z,10.70
2023-04-14T08:35:59.754Z,10.66
2023-04-14T08:36:52.902Z,10.71
2023-04-14T08:37:51.828Z,10.74
2023-04-14T08:38:51.809Z,10.77
2023-04-14T08:39:51.822Z,10.80
2023-04-14T08:40:51.800Z,10.80
2023-04-14T08:41:51.800Z,10.83
2023-04-14T08:42:51.774Z,10.92
2023-04-14T08:43:51.773Z,11.02
2023-04-14T08:44:51.748Z,11.13
2023-04-14T08:45:51.856Z,11.21
2023-04-14T08:46:51.728Z,11.28
2023-04-14T08:47:51.782Z,11.31
2023-04-14T08:48:51.708Z,11.34
2023-04-14T08:49:51.701Z,11.43
2023-04-14T08:50:51.714Z,11.46
2023-04-14T08:51:51.754Z,11.49
2023-04-14T08:52:51.688Z,11.52
2023-04-14T08:53:51.672Z,11.53
2023-04-14T08:54:51.641Z,11.52
2023-04-14T08:55:51.642Z,11.52
2023-04-14T08:56:51.648Z,11.52
2023-04-14T08:57:51.627Z,11.53
2023-04-14T08:58:51.595Z,11.53
2023-04-14T08:59:51.597Z,11.52
2023-04-14T09:00:51.653Z,11.57
2023-04-14T09:01:51.691Z,11.61
2023-04-14T09:02:51.710Z,11.64
2023-04-14T09:03:51.725Z,11.65
2023-04-14T09:04:51.594Z,11.68
2023-04-14T09:05:51.539Z,11.70
2023-04-14T09:06:51.523Z,11.70
2023-04-14T09:07:51.554Z,11.71
2023-04-14T09:08:51.489Z,11.72
2023-04-14T09:09:51.476Z,11.77
2023-04-14T09:10:51.497Z,11.85
2023-04-14T09:11:51.478Z,11.89
2023-04-14T09:12:51.440Z,11.93
2023-04-14T09:13:51.429Z,11.96
2023-04-14T09:14:51.426Z,11.99
2023-04-14T09:15:51.424Z,11.97
2023-04-14T09:16:51.483Z,12.01
2023-04-14T09:17:51.406Z,12.05
2023-04-14T09:18:51.382Z,12.11
2023-04-14T09:20:37.508Z,12.19
2023-04-14T09:21:31.325Z,12.16
2023-04-14T09:21:58.242Z,12.16
2023-04-14T09:22:51.335Z,12.19
2023-04-14T09:23:51.320Z,12.15
2023-04-14T09:24:51.308Z,12.12
2023-04-14T09:25:51.364Z,12.13
2023-04-14T09:26:51.288Z,12.20
2023-04-14T09:27:51.278Z,12.15
2023-04-14T09:28:51.265Z,12.15
2023-04-14T09:29:51.259Z,12.19
2023-04-14T09:30:51.262Z,12.15
2023-04-14T09:31:51.331Z,12.16
2023-04-14T09:32:51.246Z,12.20
2023-04-14T09:33:51.282Z,12.21
2023-04-14T09:34:51.192Z,12.24
2023-04-14T09:35:51.213Z,12.26
2023-04-14T09:36:51.200Z,12.27
2023-04-14T09:37:51.169Z,12.29
2023-04-14T09:38:51.150Z,12.34
2023-04-14T09:39:51.165Z,12.39
2023-04-14T09:40:51.132Z,12.45
2023-04-14T09:41:51.194Z,12.46
2023-04-14T09:42:51.114Z,12.48
2023-04-14T09:43:51.100Z,12.48
2023-04-14T09:44:51.094Z,12.49
2023-04-14T09:45:51.104Z,12.48
2023-04-14T09:46:51.087Z,12.46
2023-04-14T09:47:51.078Z,12.46
2023-04-14T09:48:51.049Z,12.48
2023-04-14T09:49:51.026Z,12.51
2023-04-14T09:50:51.041Z,12.59
2023-04-14T09:51:51.030Z,12.64
2023-04-14T09:52:51.000Z,12.71
2023-04-14T09:53:50.986Z,12.69
2023-04-14T09:54:50.995Z,12.74
2023-04-14T09:55:50.991Z,12.78
2023-04-14T09:56:50.967Z,12.84
2023-04-14T09:57:50.961Z,12.89
2023-04-14T09:58:50.943Z,12.93
2023-04-14T09:59:50.930Z,12.93
2023-04-14T10:00:50.911Z,12.96
2023-04-14T10:01:50.999Z,13.02
2023-04-14T10:02:51.050Z,13.09
2023-04-14T10:03:50.953Z,13.11
2023-04-14T10:04:50.884Z,13.09
2023-04-14T10:05:50.861Z,13.11
2023-04-14T10:06:50.865Z,13.09
2023-04-14T10:07:50.844Z,13.06
2023-04-14T10:08:50.828Z,13.07
2023-04-14T10:09:50.816Z,13.04
2023-04-14T10:10:50.801Z,13.03
2023-04-14T10:11:50.803Z,13.06
2023-04-14T10:12:50.789Z,13.09
2023-04-14T10:13:50.790Z,13.11
2023-04-14T10:14:50.768Z,13.15
2023-04-14T10:15:50.812Z,13.21
2023-04-14T10:16:50.748Z,13.22
2023-04-14T10:17:50.853Z,13.22
2023-04-14T10:18:50.723Z,13.25
2023-04-14T10:19:50.752Z,13.30
2023-04-14T10:20:50.696Z,13.25
2023-04-14T10:21:50.710Z,13.29
2023-04-14T10:22:50.737Z,13.36
2023-04-14T10:23:50.685Z,13.41
2023-04-14T10:24:50.653Z,13.40
2023-04-14T10:25:50.652Z,13.41
2023-04-14T10:26:50.661Z,13.46
2023-04-14T10:27:50.637Z,13.46
2023-04-14T10:28:50.624Z,13.44
2023-04-14T10:29:50.604Z,13.47
2023-04-14T10:30:50.593Z,13.46
2023-04-14T10:31:50.627Z,13.44
2023-04-14T10:32:50.607Z,13.38
2023-04-14T10:33:50.568Z,13.37
2023-04-14T10:34:50.558Z,13.37
2023-04-14T10:35:50.553Z,13.38
2023-04-14T10:36:50.532Z,13.43
2023-04-14T10:37:50.555Z,13.52
2023-04-14T10:38:50.501Z,13.61
2023-04-14T10:39:50.492Z,13.67
2023-04-14T10:40:50.494Z,13.76
2023-04-14T10:41:50.508Z,13.77
2023-04-14T10:42:50.510Z,13.83
2023-04-14T10:43:50.457Z,13.87
2023-04-14T10:44:50.433Z,13.89
2023-04-14T10:45:50.417Z,13.91
2023-04-14T10:46:50.480Z,13.88
2023-04-14T10:47:50.455Z,13.91
2023-04-14T10:48:50.381Z,13.96
2023-04-14T10:49:50.392Z,14.04
2023-04-14T10:50:50.362Z,14.12
2023-04-14T10:51:50.368Z,14.19
2023-04-14T10:52:50.365Z,14.25
2023-04-14T10:53:50.337Z,14.29
2023-04-14T10:54:50.353Z,14.32
2023-04-14T10:55:52.181Z,14.31
2023-04-14T10:56:50.335Z,14.35
2023-04-14T10:57:50.307Z,14.34
2023-04-14T10:58:50.279Z,14.37
2023-04-14T10:59:50.324Z,14.39
2023-04-14T11:00:50.301Z,14.44
2023-04-14T11:01:50.327Z,14.47
2023-04-14T11:02:50.359Z,14.56
2023-04-14T11:03:50.469Z,14.60
2023-04-14T11:04:50.229Z,14.61
2023-04-14T11:05:50.221Z,14.62
2023-04-14T11:06:50.205Z,14.67
2023-04-14T11:07:50.212Z,14.75
2023-04-14T11:08:50.205Z,14.84
2023-04-14T11:09:50.160Z,14.88
2023-04-14T11:10:50.139Z,14.87
2023-04-14T11:11:50.135Z,14.81
2023-04-14T11:12:50.153Z,14.72
2023-04-14T11:13:50.150Z,14.71
2023-04-14T11:14:50.104Z,14.72
2023-04-14T11:15:50.106Z,14.71
2023-04-14T11:17:02.859Z,14.69
2023-04-14T11:17:50.223Z,14.74
2023-04-14T11:18:50.053Z,14.71
2023-04-14T11:19:50.045Z,14.61
2023-04-14T11:20:50.042Z,14.60
2023-04-14T11:21:50.027Z,14.62
2023-04-14T11:22:50.024Z,14.67
2023-04-14T11:23:50.009Z,14.69
2023-04-14T11:24:50.020Z,14.71
2023-04-14T11:25:50.030Z,14.81
2023-04-14T11:26:49.980Z,14.84
2023-04-14T11:27:49.979Z,14.84
2023-04-14T11:28:49.951Z,14.90
2023-04-14T11:29:49.961Z,14.94
2023-04-14T11:30:49.944Z,14.99
2023-04-14T11:31:49.962Z,15.06
2023-04-14T11:32:49.996Z,15.08
2023-04-14T11:33:49.906Z,14.99
2023-04-14T11:34:49.897Z,14.98
2023-04-14T11:35:49.883Z,14.98
2023-04-14T11:36:49.862Z,14.98
2023-04-14T11:37:49.875Z,14.95
2023-04-14T11:38:49.866Z,14.95
2023-04-14T11:39:49.834Z,14.95
2023-04-14T11:40:49.829Z,14.86
2023-04-14T11:41:49.826Z,14.87
2023-04-14T11:42:49.826Z,14.75
2023-04-14T11:43:49.793Z,14.75
2023-04-14T11:44:49.780Z,14.78
2023-04-14T11:45:49.817Z,14.87
2023-04-14T11:46:49.772Z,14.90
2023-04-14T11:47:49.788Z,14.91
2023-04-14T11:48:49.730Z,14.87
2023-04-14T11:49:49.717Z,14.78
2023-04-14T11:50:49.720Z,14.68
2023-04-14T11:51:49.716Z,14.61
2023-04-14T11:52:49.705Z,14.56
2023-04-14T11:53:49.706Z,14.50
2023-04-14T11:54:49.736Z,14.53
2023-04-14T11:55:49.700Z,14.57
2023-04-14T11:56:49.640Z,14.61
2023-04-14T11:57:49.658Z,14.62
2023-04-14T11:58:49.631Z,14.54
2023-04-14T11:59:49.639Z,14.54
2023-04-14T12:00:49.613Z,14.60
2023-04-14T12:01:49.637Z,14.64
2023-04-14T12:02:49.788Z,14.62
2023-04-14T12:03:49.694Z,14.56
2023-04-14T12:04:50.658Z,14.49
2023-04-14T12:05:49.604Z,14.50
2023-04-14T12:06:49.541Z,14.56
2023-04-14T12:07:49.551Z,14.60
2023-04-14T12:08:49.522Z,14.61
2023-04-14T12:09:49.574Z,14.60
2023-04-14T12:10:49.497Z,14.54
2023-04-14T12:11:49.491Z,14.49
2023-04-14T12:12:49.507Z,14.54
2023-04-14T12:13:49.497Z,14.61
2023-04-14T12:14:49.484Z,14.69
2023-04-14T12:15:49.473Z,14.75
2023-04-14T12:16:49.438Z,14.72
2023-04-14T12:17:49.481Z,14.80
2023-04-14T12:18:49.420Z,14.75
2023-04-14T12:19:49.427Z,14.71
2023-04-14T12:20:49.393Z,14.75
2023-04-14T12:21:49.417Z,14.62
2023-04-14T12:22:49.389Z,14.54
2023-04-14T12:23:49.350Z,14.49
2023-04-14T12:24:49.348Z,14.46
2023-04-14T12:25:49.345Z,14.50
2023-04-14T12:26:49.327Z,14.49
2023-04-14T12:27:49.333Z,14.44
2023-04-14T12:28:49.311Z,14.46
2023-04-14T12:29:49.303Z,14.47
2023-04-14T12:30:49.285Z,14.39
2023-04-14T12:31:49.290Z,14.38
2023-04-14T12:32:49.396Z,14.39
2023-04-14T12:33:49.254Z,14.44
2023-04-14T12:34:49.250Z,14.47
2023-04-14T12:35:49.236Z,14.56
2023-04-14T12:36:50.604Z,14.60
2023-04-14T12:37:49.258Z,14.68
2023-04-14T12:38:49.196Z,14.75
2023-04-14T12:39:49.180Z,14.81
2023-04-14T12:40:49.171Z,14.88
2023-04-14T12:41:49.164Z,14.94
2023-04-14T12:42:49.172Z,14.91
2023-04-14T12:43:49.141Z,14.88
2023-04-14T12:44:49.130Z,14.90
2023-04-14T12:45:49.147Z,14.91
2023-04-14T12:46:49.144Z,14.88
2023-04-14T12:47:49.161Z,14.80
2023-04-14T12:48:49.089Z,14.69
2023-04-14T12:49:49.082Z,14.68
2023-04-14T12:50:50.527Z,14.71
2023-04-14T12:51:49.072Z,14.69
2023-04-14T12:52:49.085Z,14.72
2023-04-14T12:53:49.040Z,14.71
2023-04-14T12:54:49.022Z,14.78
2023-04-14T12:55:49.011Z,14.88
2023-04-14T12:56:49.009Z,14.90
2023-04-14T12:57:49.017Z,14.93
2023-04-14T12:58:48.976Z,14.98
2023-04-14T12:59:48.973Z,14.98
2023-04-14T13:00:49.008Z,14.90
2023-04-14T13:01:49.020Z,14.90
2023-04-14T13:02:49.125Z,14.87
2023-04-14T13:03:49.027Z,14.95
2023-04-14T13:04:48.923Z,15.06
2023-04-14T13:05:48.900Z,15.19
2023-04-14T13:06:48.892Z,15.24
2023-04-14T13:07:48.909Z,15.20
2023-04-14T13:08:48.863Z,15.06